Bellvue, Texas
Current Conditions -  °F | °C
As of 2:15 AM on Friday 28 Nov 2014 (Local Time) from K11R Reporting Station
Haze Haze  
Wind Chill: 45°   Ceiling: 700
Heat Index: 45°   Visibility: 1.2mi
Dew Point: 36°   Wind: 0mph
Humidity: 71%   Direction: NA
Pressure: 30.37"   Gusts: NA
Location:  29.9944°N, 96.2595°W
Report Text: K11R 280815Z AUTO 00000KT 1 1/4SM HZ VV007 07/02 A3037 RMK AO2 T00710021
Loading
Personal Weather Stations






























Interactive Weather Map New forecast layout! Learn more

10-Day Weather Forecast

Advertisements
Track Severe Weather on mobile